Airfield :
LOGIN :

Register | Disclaimer

   EN    FR    IT 

 










Legend :    VFR   Marginal VFR   IFR   Intensive IFR   Very Intensive IFR
Visi :
Ceiling :
>= 8 km
>= 3000ft
5 to 8 km
1000 to 3000 ft
1500m to 5 km
500 to 1000 ft
800 to 1500m
200 to 500 ft
< 800m
< 200 ft
Symbols :   Thunderstorms  Fog  Heavy snow  Heavy precipitations  Wind > 20 kt
SIGMETs :     Misc.  Thunderstorms  Icing  Turbulence  Mountain Waves  Volcanic Ashes






- Airport Elevation : 375 ft
- IATA code : MST


EHBK - Maastricht Aachen

CURRENT METAR :
  • 171955Z AUTO 19008KT 9999 NSC 14/13 Q1009 NOSIG

EXPIRED METARs :
  • 171925Z AUTO 20006KT 9999 FEW015 14/13 Q1009 NOSIG
  • 171855Z AUTO 22008KT 190V250 9999 FEW008 SCT012 BKN014 14/13 Q1010 REDZ TEMPO 7000 -RADZ BKN018
  • 171825Z AUTO 23008KT 200V270 6000 -RADZ FEW004 SCT006 BKN008 14/13 Q1009 TEMPO 7000 -RA BKN018
  • 171755Z AUTO 20012KT 170V230 9999 -RA FEW007 BKN016 OVC020 14/13 Q1009 TEMPO 7000 -RA BKN012
  • 171725Z AUTO 19008KT 9999 FEW009 SCT012 OVC018 14/13 Q1009 TEMPO 7000 -RA BKN012

TAF TAF EHBK
Valid from the 17 at 18:00 until the 19 at 00:00 UTC


171717Z 1718/1824 20008KT 9999 BKN020
PROB40
TEMPO 1718/1720 7000 -RA -SHRA BKN012 FEW020CB
PROB30
TEMPO 1800/1805 7000 -SHRA -RA BKN020 FEW030CB
BECMG 1808/1811 23017G27KT
TEMPO 1809/1813 24020G33KT 4000 SHRA SHRAGS SCT020CB
BECMG 1816/1819 20010KT



MET'MAP, your aeronautical weather chart ! - Copyright ORBIFLY December 2007 - Disclaimer

ORBIFLY MET'MAP TEAM :

Programming & Development : Alexandra Zaïnal
Concept & Development : Baudouin d'Aumeries
Co-Development & Prog : Marc-Olivier Méhu
Technical & hardware support : Manuel Goepfert

Contact : metmap@orbifly.com




SOURCES & CREDITS :

   NOAA